sensor_id;sensor_type;location;lat;lon;timestamp;temperature;humidity
6752;DHT22;3413;47.680;9.166;2023-11-21T10:51:45;13.70;80.40
6752;DHT22;3413;47.680;9.166;2023-11-21T10:56:49;14.50;81.20
6752;DHT22;3413;47.680;9.166;2023-11-21T11:01:53;15.10;81.20
6752;DHT22;3413;47.680;9.166;2023-11-21T11:07:02;15.40;80.90
6752;DHT22;3413;47.680;9.166;2023-11-21T11:12:08;15.60;80.60
6752;DHT22;3413;47.680;9.166;2023-11-21T11:17:13;15.40;80.00
6752;DHT22;3413;47.680;9.166;2023-11-21T11:27:57;14.90;80.20
6752;DHT22;3413;47.680;9.166;2023-11-21T11:38:37;14.40;80.50
6752;DHT22;3413;47.680;9.166;2023-11-21T11:43:39;14.10;80.90
6752;DHT22;3413;47.680;9.166;2023-11-21T11:49:24;14.00;80.50
6752;DHT22;3413;47.680;9.166;2023-11-21T12:00:48;13.80;79.80
6752;DHT22;3413;47.680;9.166;2023-11-21T13:17:20;14.00;79.90
6752;DHT22;3413;47.680;9.166;2023-11-21T13:22:26;14.30;80.60
6752;DHT22;3413;47.680;9.166;2023-11-21T13:27:28;14.50;81.50
6752;DHT22;3413;47.680;9.166;2023-11-21T13:32:31;15.00;81.50
6752;DHT22;3413;47.680;9.166;2023-11-21T13:37:34;15.20;80.80
6752;DHT22;3413;47.680;9.166;2023-11-21T13:42:36;14.90;80.70
6752;DHT22;3413;47.680;9.166;2023-11-21T13:47:38;15.00;80.90
6752;DHT22;3413;47.680;9.166;2023-11-21T13:52:41;15.00;80.90
6752;DHT22;3413;47.680;9.166;2023-11-21T13:57:43;14.80;80.70
6752;DHT22;3413;47.680;9.166;2023-11-21T14:02:48;14.70;80.70
6752;DHT22;3413;47.680;9.166;2023-11-21T14:07:50;14.60;80.80
6752;DHT22;3413;47.680;9.166;2023-11-21T14:12:52;14.60;80.70
6752;DHT22;3413;47.680;9.166;2023-11-21T14:17:54;14.40;80.60
6752;DHT22;3413;47.680;9.166;2023-11-21T14:22:57;14.30;80.40
6752;DHT22;3413;47.680;9.166;2023-11-21T14:27:59;14.20;80.40
6752;DHT22;3413;47.680;9.166;2023-11-21T14:33:01;14.20;80.30
6752;DHT22;3413;47.680;9.166;2023-11-21T14:38:04;14.10;80.30
6752;DHT22;3413;47.680;9.166;2023-11-21T14:43:06;14.10;80.30
6752;DHT22;3413;47.680;9.166;2023-11-21T14:54:17;13.90;80.40
6752;DHT22;3413;47.680;9.166;2023-11-21T14:59:28;14.00;80.10
6752;DHT22;3413;47.680;9.166;2023-11-21T15:04:30;14.10;80.10
6752;DHT22;3413;47.680;9.166;2023-11-21T15:10:39;14.10;80.10
6752;DHT22;3413;47.680;9.166;2023-11-21T15:15:48;14.10;80.10
6752;DHT22;3413;47.680;9.166;2023-11-21T15:20:52;14.10;80.00
6752;DHT22;3413;47.680;9.166;2023-11-21T15:25:54;14.20;80.00
6752;DHT22;3413;47.680;9.166;2023-11-21T15:30:56;14.20;80.20
6752;DHT22;3413;47.680;9.166;2023-11-21T15:35:59;14.20;80.20
6752;DHT22;3413;47.680;9.166;2023-11-21T15:41:01;14.20;80.20
6752;DHT22;3413;47.680;9.166;2023-11-21T15:46:03;14.20;80.20
6752;DHT22;3413;47.680;9.166;2023-11-21T15:51:09;14.20;80.20
6752;DHT22;3413;47.680;9.166;2023-11-21T15:56:14;14.20;80.20
6752;DHT22;3413;47.680;9.166;2023-11-21T16:01:17;14.10;80.20
6752;DHT22;3413;47.680;9.166;2023-11-21T16:06:19;14.00;80.20
6752;DHT22;3413;47.680;9.166;2023-11-21T16:11:21;14.00;80.20
6752;DHT22;3413;47.680;9.166;2023-11-21T16:16:23;14.00;80.30
6752;DHT22;3413;47.680;9.166;2023-11-21T16:21:25;14.00;80.30
6752;DHT22;3413;47.680;9.166;2023-11-21T16:26:28;14.00;80.30
6752;DHT22;3413;47.680;9.166;2023-11-21T21:32:53;12.00;79.90
6752;DHT22;3413;47.680;9.166;2023-11-21T21:37:59;12.00;80.20
6752;DHT22;3413;47.680;9.166;2023-11-21T21:43:01;12.00;79.90
6752;DHT22;3413;47.680;9.166;2023-11-21T21:48:03;12.00;79.80
6752;DHT22;3413;47.680;9.166;2023-11-21T21:53:06;12.00;79.90
6752;DHT22;3413;47.680;9.166;2023-11-21T21:58:12;12.00;80.00
6752;DHT22;3413;47.680;9.166;2023-11-21T22:03:15;12.00;80.00
6752;DHT22;3413;47.680;9.166;2023-11-21T22:08:17;12.10;80.10
6752;DHT22;3413;47.680;9.166;2023-11-21T22:13:19;12.10;80.00
6752;DHT22;3413;47.680;9.166;2023-11-21T22:18:21;12.10;80.00
6752;DHT22;3413;47.680;9.166;2023-11-21T22:23:23;12.10;80.00
6752;DHT22;3413;47.680;9.166;2023-11-21T22:28:25;12.10;79.90
6752;DHT22;3413;47.680;9.166;2023-11-21T22:33:28;12.00;79.90
6752;DHT22;3413;47.680;9.166;2023-11-21T22:38:29;12.00;79.90
6752;DHT22;3413;47.680;9.166;2023-11-21T22:43:31;12.00;79.90
6752;DHT22;3413;47.680;9.166;2023-11-21T22:48:33;11.90;79.80
6752;DHT22;3413;47.680;9.166;2023-11-21T22:53:37;11.80;79.80
6752;DHT22;3413;47.680;9.166;2023-11-21T22:58:39;11.60;79.70
6752;DHT22;3413;47.680;9.166;2023-11-21T23:03:41;11.60;79.80
6752;DHT22;3413;47.680;9.166;2023-11-21T23:08:43;11.50;79.70
6752;DHT22;3413;47.680;9.166;2023-11-21T23:13:46;11.50;79.80
6752;DHT22;3413;47.680;9.166;2023-11-21T23:18:48;11.60;79.90
6752;DHT22;3413;47.680;9.166;2023-11-21T23:23:52;11.60;79.90
6752;DHT22;3413;47.680;9.166;2023-11-21T23:28:54;11.60;79.60
6752;DHT22;3413;47.680;9.166;2023-11-21T23:33:56;11.50;79.60
6752;DHT22;3413;47.680;9.166;2023-11-21T23:38:58;11.40;79.70
6752;DHT22;3413;47.680;9.166;2023-11-21T23:44:00;11.40;79.80
6752;DHT22;3413;47.680;9.166;2023-11-21T23:49:02;11.40;79.80
6752;DHT22;3413;47.680;9.166;2023-11-21T23:54:04;11.40;79.80
6752;DHT22;3413;47.680;9.166;2023-11-21T23:59:06;11.50;79.80
